createdAt,value
2023-02-06T00:02:52.944Z,98516.47
2023-02-06T00:05:58.517Z,98506.16
2023-02-06T00:08:55.391Z,98516.50
2023-02-06T00:11:52.222Z,98518.44
2023-02-06T00:14:49.071Z,98517.28
2023-02-06T00:17:45.913Z,98522.47
2023-02-06T00:20:42.747Z,98527.75
2023-02-06T00:23:40.286Z,98526.44
2023-02-06T00:26:37.162Z,98514.69
2023-02-06T00:29:34.035Z,98516.13
2023-02-06T00:32:30.993Z,98512.84
2023-02-06T00:35:27.890Z,98504.91
2023-02-06T00:38:24.679Z,98516.91
2023-02-06T00:41:21.552Z,98515.72
2023-02-06T00:44:18.444Z,98505.16
2023-02-06T00:47:15.262Z,98506.19
2023-02-06T00:50:12.063Z,98495.44
2023-02-06T00:53:08.976Z,98490.31
2023-02-06T00:56:05.974Z,98495.53
2023-02-06T00:59:02.928Z,98507.88
2023-02-06T01:01:59.756Z,98512.44
2023-02-06T01:04:56.596Z,98519.41
2023-02-06T01:07:53.616Z,98527.19
2023-02-06T01:10:50.403Z,98521.84
2023-02-06T01:13:47.521Z,98529.28
2023-02-06T01:16:44.371Z,98522.66
2023-02-06T01:19:41.225Z,98525.59
2023-02-06T01:22:38.415Z,98533.41
2023-02-06T01:25:36.448Z,98523.31
2023-02-06T01:28:37.809Z,98535.22
2023-02-06T01:31:34.758Z,98533.41
2023-02-06T01:34:31.705Z,98542.28
2023-02-06T01:37:30.425Z,98544.53
2023-02-06T01:40:27.239Z,98542.13
2023-02-06T01:43:25.503Z,98530.50
2023-02-06T01:46:22.327Z,98525.16
2023-02-06T01:49:40.094Z,98532.78
2023-02-06T01:52:36.926Z,98533.13
2023-02-06T01:55:37.970Z,98530.66
2023-02-06T01:58:40.593Z,98534.88
2023-02-06T02:01:37.412Z,98539.00
2023-02-06T02:04:34.745Z,98530.03
2023-02-06T02:07:46.824Z,98520.03
2023-02-06T02:10:43.993Z,98520.50
2023-02-06T02:13:40.888Z,98530.38
2023-02-06T02:16:42.941Z,98529.38
2023-02-06T02:19:57.598Z,98528.03
2023-02-06T02:23:15.061Z,98519.16
2023-02-06T02:27:13.854Z,98521.16
2023-02-06T02:30:54.570Z,98526.88
2023-02-06T02:34:28.023Z,98535.84
2023-02-06T02:37:52.544Z,98536.84
2023-02-06T02:40:58.585Z,98533.22
2023-02-06T02:44:32.205Z,98519.59
2023-02-06T02:47:40.228Z,98503.50
2023-02-06T02:50:38.996Z,98506.53
2023-02-06T02:53:36.284Z,98510.44
2023-02-06T02:56:33.862Z,98508.19
2023-02-06T02:59:42.069Z,98501.41
2023-02-06T03:02:40.833Z,98507.19
2023-02-06T03:06:00.044Z,98519.53
2023-02-06T03:09:22.668Z,98511.94
2023-02-06T03:12:39.954Z,98521.25
2023-02-06T03:16:04.892Z,98523.97
2023-02-06T03:19:15.331Z,98520.06
2023-02-06T03:22:14.353Z,98527.50
2023-02-06T03:25:18.750Z,98536.63
2023-02-06T03:28:27.411Z,98517.53
2023-02-06T03:32:11.153Z,98506.13
2023-02-06T03:35:08.670Z,98519.53
2023-02-06T03:38:08.385Z,98524.44
2023-02-06T03:41:05.979Z,98511.19
2023-02-06T03:44:06.427Z,98501.50
2023-02-06T03:47:04.997Z,98502.13
2023-02-06T03:50:02.271Z,98498.88
2023-02-06T03:53:02.104Z,98503.94
2023-02-06T03:56:06.400Z,98500.84
2023-02-06T03:59:03.763Z,98505.75
2023-02-06T04:02:04.005Z,98511.28
2023-02-06T04:05:00.878Z,98524.91
2023-02-06T04:07:57.828Z,98531.78
2023-02-06T04:10:54.671Z,98524.81
2023-02-06T04:13:51.506Z,98523.88
2023-02-06T04:16:48.439Z,98517.63
2023-02-06T04:19:45.441Z,98510.66
2023-02-06T04:22:42.597Z,98506.66
2023-02-06T04:25:39.439Z,98522.78
2023-02-06T04:28:36.294Z,98517.19
2023-02-06T04:31:33.469Z,98523.16
2023-02-06T04:34:31.136Z,98524.25
2023-02-06T04:37:27.978Z,98522.06
2023-02-06T04:40:24.811Z,98525.25
2023-02-06T04:43:21.618Z,98519.88
2023-02-06T04:46:18.610Z,98520.16
2023-02-06T04:49:16.867Z,98523.50
2023-02-06T04:52:13.699Z,98523.53
2023-02-06T04:55:11.191Z,98527.78
2023-02-06T04:58:08.101Z,98514.53
2023-02-06T05:01:05.329Z,98501.75
2023-02-06T05:04:02.335Z,98500.78
2023-02-06T05:06:59.219Z,98505.31
2023-02-06T05:09:56.055Z,98503.84
2023-02-06T05:12:52.929Z,98512.19
2023-02-06T05:15:49.821Z,98513.25
2023-02-06T05:18:47.148Z,98513.91
2023-02-06T05:21:44.095Z,98524.88
2023-02-06T05:24:40.932Z,98537.59
2023-02-06T05:27:37.776Z,98542.84
2023-02-06T05:30:35.090Z,98524.06
2023-02-06T05:33:32.125Z,98526.16
2023-02-06T05:36:29.254Z,98511.38
2023-02-06T05:39:26.130Z,98512.84
2023-02-06T05:42:22.992Z,98507.56
2023-02-06T05:45:19.822Z,98520.16
2023-02-06T05:48:16.711Z,98510.66
2023-02-06T05:51:13.552Z,98504.19
2023-02-06T05:54:10.415Z,98494.78
2023-02-06T05:57:07.593Z,98487.84
2023-02-06T06:00:06.484Z,98497.66
2023-02-06T06:03:03.346Z,98500.38
2023-02-06T06:06:00.555Z,98516.59
2023-02-06T06:08:57.381Z,98513.63
2023-02-06T06:11:54.228Z,98503.03
2023-02-06T06:14:51.071Z,98521.16
2023-02-06T06:17:47.898Z,98507.22
2023-02-06T06:20:44.813Z,98508.03
2023-02-06T06:23:41.657Z,98513.09
2023-02-06T06:26:39.334Z,98504.84
2023-02-06T06:29:36.583Z,98510.81
2023-02-06T06:32:33.415Z,98512.84
2023-02-06T06:35:30.257Z,98519.38
2023-02-06T06:38:27.059Z,98512.09
2023-02-06T06:41:23.888Z,98502.41
2023-02-06T06:44:20.972Z,98502.19
2023-02-06T06:47:17.922Z,98501.84
2023-02-06T06:50:14.941Z,98509.13
2023-02-06T06:53:11.761Z,98506.31
2023-02-06T06:56:12.422Z,98514.09
2023-02-06T06:59:09.240Z,98513.00
2023-02-06T07:02:07.185Z,98499.56
2023-02-06T07:05:05.465Z,98502.41
2023-02-06T07:08:02.326Z,98509.81
2023-02-06T07:10:59.187Z,98516.16
2023-02-06T07:13:55.993Z,98498.94
2023-02-06T07:16:52.924Z,98495.41
2023-02-06T07:19:52.385Z,98497.38
2023-02-06T07:22:50.315Z,98497.94
2023-02-06T07:25:47.258Z,98508.53
2023-02-06T07:28:44.153Z,98509.44
2023-02-06T07:31:41.268Z,98496.53
2023-02-06T07:34:38.168Z,98514.78
2023-02-06T07:37:35.041Z,98505.66
2023-02-06T07:40:43.990Z,98514.06
2023-02-06T07:43:41.356Z,98513.16
2023-02-06T07:46:38.181Z,98514.00
2023-02-06T07:49:34.972Z,98503.06
2023-02-06T07:52:31.969Z,98508.59
2023-02-06T07:55:29.715Z,98503.97
2023-02-06T07:58:26.608Z,98499.63
2023-02-06T08:01:23.919Z,98506.34
2023-02-06T08:04:20.860Z,98508.59
2023-02-06T08:07:18.249Z,98500.63
2023-02-06T08:10:15.585Z,98507.56
2023-02-06T08:13:12.414Z,98509.38
2023-02-06T08:16:15.297Z,98512.06
2023-02-06T08:19:12.358Z,98496.91
2023-02-06T08:22:09.192Z,98506.66
2023-02-06T08:25:06.999Z,98496.59
2023-02-06T08:28:04.104Z,98487.00
2023-02-06T08:31:08.389Z,98470.31
2023-02-06T08:34:07.368Z,98466.16
2023-02-06T08:37:04.274Z,98454.78
2023-02-06T08:40:01.117Z,98461.88
2023-02-06T08:42:57.962Z,98444.13
2023-02-06T08:45:59.516Z,98441.44
2023-02-06T08:48:59.787Z,98439.75
2023-02-06T08:51:56.631Z,98438.84
2023-02-06T08:54:53.454Z,98427.75
2023-02-06T08:57:50.293Z,98421.75
2023-02-06T09:00:47.110Z,98408.66
2023-02-06T09:03:45.070Z,98414.69
2023-02-06T09:06:45.327Z,98410.53
2023-02-06T09:09:42.187Z,98410.91
2023-02-06T09:12:39.036Z,98415.94
2023-02-06T09:15:36.429Z,98415.91
2023-02-06T09:18:34.227Z,98404.50
2023-02-06T09:21:34.978Z,98404.19
2023-02-06T09:24:32.244Z,98416.19
2023-02-06T09:27:29.109Z,98404.66
2023-02-06T09:30:27.030Z,98394.31
2023-02-06T09:33:25.499Z,98408.69
2023-02-06T09:36:23.341Z,98399.19
2023-02-06T09:39:20.672Z,98417.88
2023-02-06T09:42:39.794Z,98407.13
2023-02-06T09:45:37.047Z,98397.97
2023-02-06T09:48:38.806Z,98390.88
2023-02-06T09:52:29.190Z,98398.53
2023-02-06T09:55:45.296Z,98402.44
2023-02-06T09:59:05.785Z,98390.22
2023-02-06T10:02:23.764Z,98386.78
2023-02-06T10:06:04.108Z,98397.31
2023-02-06T10:09:18.707Z,98394.09
2023-02-06T10:12:41.101Z,98392.09
2023-02-06T10:15:46.259Z,98392.06
2023-02-06T10:18:50.293Z,98393.50
2023-02-06T10:21:58.178Z,98396.72
2023-02-06T10:25:22.679Z,98390.84
2023-02-06T10:28:30.041Z,98393.69
2023-02-06T10:31:51.298Z,98399.75
2023-02-06T10:35:42.815Z,98395.28
2023-02-06T10:39:27.207Z,98383.72
2023-02-06T10:42:50.602Z,98394.03
2023-02-06T10:46:08.877Z,98400.31
2023-02-06T10:49:47.680Z,98400.56
2023-02-06T10:52:45.567Z,98413.78
2023-02-06T10:55:52.687Z,98401.22
2023-02-06T10:59:23.682Z,98397.31
2023-02-06T11:02:23.850Z,98386.09
2023-02-06T11:05:25.476Z,98383.69
2023-02-06T11:08:36.741Z,98392.63
2023-02-06T11:11:46.672Z,98380.03
2023-02-06T11:14:45.055Z,98367.22
2023-02-06T11:17:44.782Z,98363.38
2023-02-06T11:20:44.816Z,98365.56
2023-02-06T11:23:42.433Z,98345.06
2023-02-06T11:27:00.132Z,98341.03
2023-02-06T11:30:20.406Z,98340.03
2023-02-06T11:33:50.448Z,98341.06
2023-02-06T11:36:53.661Z,98344.91
2023-02-06T11:39:50.507Z,98353.16
2023-02-06T11:43:07.333Z,98356.97
2023-02-06T11:46:24.047Z,98347.44
2023-02-06T11:49:26.758Z,98334.44
2023-02-06T11:52:33.348Z,98323.97
2023-02-06T11:55:36.388Z,98312.38
2023-02-06T11:58:33.853Z,98309.56
2023-02-06T12:01:43.845Z,98314.81
2023-02-06T12:04:42.006Z,98301.19
2023-02-06T12:08:02.292Z,98286.56
2023-02-06T12:11:03.554Z,98283.72
2023-02-06T12:14:24.097Z,98275.22
2023-02-06T12:17:28.071Z,98285.94
2023-02-06T12:20:33.184Z,98295.44
2023-02-06T12:23:41.473Z,98284.28
2023-02-06T12:26:38.845Z,98302.94
2023-02-06T12:29:44.573Z,98305.44
2023-02-06T12:32:49.148Z,98321.13
2023-02-06T12:36:00.576Z,98308.56
2023-02-06T12:39:21.064Z,98325.38
2023-02-06T12:43:03.045Z,98327.06
2023-02-06T12:46:16.416Z,98329.81
2023-02-06T12:49:28.153Z,98323.31
2023-02-06T12:52:39.171Z,98322.50
2023-02-06T12:55:51.166Z,98317.06
2023-02-06T12:59:10.412Z,98325.97
2023-02-06T13:02:51.988Z,98327.19
2023-02-06T13:06:12.528Z,98325.56
2023-02-06T13:09:22.658Z,98331.38
2023-02-06T13:15:42.158Z,98339.59
2023-02-06T13:18:41.829Z,98348.50
2023-02-06T13:21:38.728Z,98351.22
2023-02-06T13:24:36.671Z,98343.47
2023-02-06T13:27:40.489Z,98343.81
2023-02-06T13:30:41.102Z,98345.53
2023-02-06T13:33:49.705Z,98345.41
2023-02-06T13:36:51.244Z,98334.44
2023-02-06T13:40:09.338Z,98333.72
2023-02-06T13:43:21.111Z,98348.00
2023-02-06T13:46:27.161Z,98348.47
2023-02-06T13:50:07.135Z,98332.94
2023-02-06T13:53:26.373Z,98338.22
2023-02-06T13:56:59.956Z,98357.75
2023-02-06T14:00:23.000Z,98356.63
2023-02-06T14:03:30.287Z,98356.28
2023-02-06T14:06:48.496Z,98362.91
2023-02-06T14:10:06.292Z,98371.50
2023-02-06T14:13:48.218Z,98370.13
2023-02-06T14:17:12.275Z,98365.91
2023-02-06T14:20:29.732Z,98373.84
2023-02-06T14:23:48.551Z,98376.00
2023-02-06T14:27:07.945Z,98361.16
2023-02-06T14:30:24.366Z,98361.03
2023-02-06T14:34:18.027Z,98373.31
2023-02-06T14:37:20.500Z,98369.47
2023-02-06T14:40:33.603Z,98385.06
2023-02-06T14:43:37.734Z,98383.63
2023-02-06T14:46:35.077Z,98377.53
2023-02-06T14:49:38.233Z,98381.97
2023-02-06T14:52:36.399Z,98378.72
2023-02-06T14:55:40.963Z,98385.94
2023-02-06T14:58:37.978Z,98387.38
2023-02-06T15:01:34.928Z,98385.75
2023-02-06T15:04:31.832Z,98397.03
2023-02-06T15:07:38.352Z,98385.25
2023-02-06T15:10:37.451Z,98381.28
2023-02-06T15:13:36.083Z,98377.50
2023-02-06T15:16:47.717Z,98376.38
2023-02-06T15:19:44.576Z,98360.97
2023-02-06T15:22:41.455Z,98366.81
2023-02-06T15:25:53.054Z,98379.00
2023-02-06T15:29:00.798Z,98374.59
2023-02-06T15:32:06.329Z,98375.47
2023-02-06T15:35:19.849Z,98380.63
2023-02-06T15:38:17.327Z,98383.38
2023-02-06T15:41:15.225Z,98390.00
2023-02-06T15:44:33.175Z,98387.13
2023-02-06T15:47:31.014Z,98386.09
2023-02-06T15:50:28.500Z,98390.53
2023-02-06T15:53:39.577Z,98410.34
2023-02-06T15:56:41.554Z,98421.28
2023-02-06T15:59:41.156Z,98419.72
2023-02-06T16:02:40.645Z,98416.41
2023-02-06T16:05:43.359Z,98415.75
2023-02-06T16:08:40.239Z,98423.09
2023-02-06T16:11:51.185Z,98412.56
2023-02-06T16:15:03.548Z,98407.66
2023-02-06T16:18:18.565Z,98404.41
2023-02-06T16:21:18.531Z,98405.78
2023-02-06T16:24:17.744Z,98403.78
2023-02-06T16:27:22.814Z,98401.34
2023-02-06T16:30:32.137Z,98417.47
2023-02-06T16:33:49.672Z,98417.81
2023-02-06T16:36:46.606Z,98421.34
2023-02-06T16:39:44.835Z,98427.91
2023-02-06T16:42:42.368Z,98414.75
2023-02-06T16:45:39.194Z,98429.22
2023-02-06T16:48:37.062Z,98431.53
2023-02-06T16:51:33.985Z,98432.75
2023-02-06T16:54:32.566Z,98425.78
2023-02-06T16:57:41.805Z,98424.09
2023-02-06T17:00:39.131Z,98424.34
2023-02-06T17:03:37.831Z,98418.06
2023-02-06T17:06:35.949Z,98419.97
2023-02-06T17:09:32.862Z,98410.06
2023-02-06T17:12:30.578Z,98408.84
2023-02-06T17:15:27.708Z,98422.66
2023-02-06T17:18:24.723Z,98409.44
2023-02-06T17:21:23.987Z,98419.50
2023-02-06T17:24:21.218Z,98414.38
2023-02-06T17:27:22.162Z,98412.25
2023-02-06T17:30:25.824Z,98406.22
2023-02-06T17:33:23.442Z,98421.41
2023-02-06T17:36:29.485Z,98421.91
2023-02-06T17:39:27.612Z,98421.13
2023-02-06T17:42:25.668Z,98426.78
2023-02-06T17:45:23.200Z,98422.69
2023-02-06T17:48:20.196Z,98412.88
2023-02-06T17:51:17.047Z,98414.81
2023-02-06T17:54:13.983Z,98423.53
2023-02-06T17:57:16.072Z,98416.84
2023-02-06T18:00:16.774Z,98421.66
2023-02-06T18:03:17.140Z,98431.38
2023-02-06T18:06:14.568Z,98429.13
2023-02-06T18:09:11.495Z,98433.19
2023-02-06T18:12:08.373Z,98444.22
2023-02-06T18:15:05.735Z,98448.16
2023-02-06T18:18:04.741Z,98445.41
2023-02-06T18:21:02.263Z,98440.00
2023-02-06T18:23:59.527Z,98453.06
2023-02-06T18:26:58.265Z,98463.69
2023-02-06T18:29:56.518Z,98455.19
2023-02-06T18:32:53.583Z,98452.19
2023-02-06T18:35:51.361Z,98452.75
2023-02-06T18:38:48.621Z,98450.28
2023-02-06T18:42:04.098Z,98445.03
2023-02-06T18:45:03.262Z,98446.66
2023-02-06T18:48:03.978Z,98436.94
2023-02-06T18:51:00.885Z,98424.97
2023-02-06T18:53:59.628Z,98440.16
2023-02-06T18:56:56.827Z,98438.88
2023-02-06T18:59:53.746Z,98426.00
2023-02-06T19:02:50.825Z,98422.78
2023-02-06T19:05:47.675Z,98421.56
2023-02-06T19:08:46.719Z,98426.22
2023-02-06T19:11:43.739Z,98428.81
2023-02-06T19:14:40.677Z,98436.25
2023-02-06T19:17:38.193Z,98453.25
2023-02-06T19:20:35.437Z,98457.50
2023-02-06T19:23:32.774Z,98455.31
2023-02-06T19:26:30.341Z,98467.91
2023-02-06T19:29:35.622Z,98461.28
2023-02-06T19:32:33.523Z,98456.91
2023-02-06T19:35:30.372Z,98449.72
2023-02-06T19:38:27.195Z,98456.19
2023-02-06T19:41:26.498Z,98454.19
2023-02-06T19:44:23.352Z,98454.75
2023-02-06T19:47:20.472Z,98459.63
2023-02-06T19:50:17.390Z,98461.31
2023-02-06T19:53:16.865Z,98459.75
2023-02-06T19:56:34.591Z,98462.66
2023-02-06T19:59:31.603Z,98473.19
2023-02-06T20:02:28.432Z,98484.34
2023-02-06T20:05:27.167Z,98488.09
2023-02-06T20:08:24.090Z,98489.81
2023-02-06T20:11:21.954Z,98485.22
2023-02-06T20:14:19.459Z,98481.03
2023-02-06T20:17:18.073Z,98492.63
2023-02-06T20:20:15.003Z,98491.44
2023-02-06T20:23:11.812Z,98487.56
2023-02-06T20:26:08.664Z,98486.81
2023-02-06T20:29:08.024Z,98485.94
2023-02-06T20:32:06.920Z,98476.94
2023-02-06T20:35:03.872Z,98497.91
2023-02-06T20:38:00.671Z,98509.84
2023-02-06T20:40:57.498Z,98516.78
2023-02-06T20:43:57.490Z,98532.41
2023-02-06T20:46:54.322Z,98530.47
2023-02-06T20:49:51.212Z,98535.75
2023-02-06T20:52:48.126Z,98530.38
2023-02-06T20:55:44.952Z,98521.34
2023-02-06T20:58:43.477Z,98532.66
2023-02-06T21:01:40.705Z,98535.66
2023-02-06T21:04:37.571Z,98538.84
2023-02-06T21:07:34.501Z,98519.00
2023-02-06T21:10:31.357Z,98527.84
2023-02-06T21:13:28.200Z,98537.22
2023-02-06T21:16:26.988Z,98551.28
2023-02-06T21:19:28.338Z,98539.03
2023-02-06T21:22:25.157Z,98531.69
2023-02-06T21:25:22.351Z,98546.00
2023-02-06T21:28:19.806Z,98521.91
2023-02-06T21:31:24.164Z,98513.00
2023-02-06T21:34:25.536Z,98522.88
2023-02-06T21:37:22.579Z,98519.63
2023-02-06T21:40:20.849Z,98517.72
2023-02-06T21:43:17.737Z,98529.94
2023-02-06T21:46:14.625Z,98524.44
2023-02-06T21:49:11.732Z,98521.16
2023-02-06T21:52:08.632Z,98524.16
2023-02-06T21:55:07.603Z,98520.63
2023-02-06T21:58:04.524Z,98515.63
2023-02-06T22:01:01.565Z,98525.88
2023-02-06T22:03:58.664Z,98531.03
2023-02-06T22:06:55.477Z,98535.19
2023-02-06T22:09:52.306Z,98518.03
2023-02-06T22:12:49.730Z,98525.59
2023-02-06T22:15:50.302Z,98528.38
2023-02-06T22:18:47.349Z,98534.59
2023-02-06T22:21:44.645Z,98524.44
2023-02-06T22:24:41.655Z,98532.63
2023-02-06T22:27:39.087Z,98541.13
2023-02-06T22:30:35.927Z,98549.78
2023-02-06T22:33:32.882Z,98551.84
2023-02-06T22:36:33.123Z,98546.75
2023-02-06T22:39:29.960Z,98567.47
2023-02-06T22:42:26.808Z,98581.63
2023-02-06T22:45:23.826Z,98583.38
2023-02-06T22:48:20.636Z,98596.28
2023-02-06T22:51:18.003Z,98595.75
2023-02-06T22:54:15.216Z,98595.00
2023-02-06T22:57:12.726Z,98599.16
2023-02-06T23:00:11.749Z,98621.16
2023-02-06T23:03:08.565Z,98615.13
2023-02-06T23:06:08.982Z,98616.41
2023-02-06T23:09:08.489Z,98611.38
2023-02-06T23:12:05.901Z,98615.25
2023-02-06T23:15:02.763Z,98619.97
2023-02-06T23:17:59.585Z,98603.44
2023-02-06T23:20:59.751Z,98604.13
2023-02-06T23:23:58.335Z,98601.91
2023-02-06T23:26:55.237Z,98612.25
2023-02-06T23:29:52.121Z,98620.13
2023-02-06T23:32:48.990Z,98624.44
2023-02-06T23:35:45.838Z,98634.38
2023-02-06T23:38:44.195Z,98643.78
2023-02-06T23:41:41.267Z,98646.28
2023-02-06T23:44:38.070Z,98658.09
2023-02-06T23:47:35.241Z,98653.50
2023-02-06T23:50:32.169Z,98658.06
2023-02-06T23:53:29.040Z,98647.25
2023-02-06T23:56:29.759Z,98653.69
2023-02-06T23:59:26.570Z,98655.97
